Time;durP1;ratioP1;P1;durP2;ratioP2;P2;SDS_P1;SDS_P2;PMS_P1;PMS_P2;Temp;Humidity;BMP_temperature;BMP_pressure;BME280_temperature;BME280_humidity;BME280_pressure;Samples;Min_cycle;Max_cycle;Signal;HPM_P1;HPM_P2
2023/07/18 00:01:15;;;;;;;12.05;1.90;;;;;;;21.14;59.29;102179.59;5027351;28;20040;-47
2023/07/18 00:03:41;;;;;;;9.93;2.15;;;;;;;21.10;59.50;102181.41;5029975;28;20038;-50
2023/07/18 00:06:06;;;;;;;8.80;1.90;;;;;;;21.10;59.46;102184.06;5029293;28;20030;-44
2023/07/18 00:08:31;;;;;;;8.70;1.95;;;;;;;21.17;59.28;102174.28;5029577;28;20033;-49
2023/07/18 00:10:57;;;;;;;7.50;1.90;;;;;;;21.19;59.15;102175.16;5029547;28;20120;-49
2023/07/18 00:13:23;;;;;;;6.65;1.63;;;;;;;21.12;59.62;102174.31;5029183;28;20795;-43
2023/07/18 00:15:49;;;;;;;9.50;1.80;;;;;;;21.17;59.17;102175.16;5029486;28;20171;-45
2023/07/18 00:18:14;;;;;;;5.07;1.52;;;;;;;21.19;59.15;102164.56;5028939;28;20116;-46
2023/07/18 00:20:40;;;;;;;6.90;1.75;;;;;;;21.18;59.16;102168.09;5029287;28;20072;-44
2023/07/18 00:23:09;;;;;;;9.35;1.80;;;;;;;21.12;59.04;102169.00;5029631;28;20068;-47
2023/07/18 00:25:35;;;;;;;7.30;1.90;;;;;;;21.15;59.03;102162.81;5029189;28;20087;-45
2023/07/18 00:28:00;;;;;;;8.30;1.90;;;;;;;21.03;59.38;102170.00;5029527;28;20072;-45
2023/07/18 00:30:26;;;;;;;6.80;1.60;;;;;;;21.02;59.22;102164.69;5028354;28;20032;-43
2023/07/18 00:32:51;;;;;;;9.13;1.73;;;;;;;20.95;59.40;102170.94;5029330;28;20116;-45
2023/07/18 00:35:17;;;;;;;8.95;2.10;;;;;;;20.92;59.43;102169.19;5027860;28;20065;-45
2023/07/18 00:37:43;;;;;;;8.60;1.80;;;;;;;20.84;60.08;102164.84;5029224;28;20032;-50
2023/07/18 00:40:10;;;;;;;5.00;1.38;;;;;;;20.89;59.87;102163.03;5028404;28;20030;-47
2023/07/18 00:42:40;;;;;;;8.75;1.80;;;;;;;20.86;59.90;102165.72;5027838;28;20034;-45
2023/07/18 00:45:07;;;;;;;5.68;1.50;;;;;;;20.77;60.30;102169.31;5027552;28;20495;-44
2023/07/18 00:47:37;;;;;;;5.97;1.50;;;;;;;20.85;59.98;102166.63;5029339;28;20057;-45
2023/07/18 00:50:07;;;;;;;6.68;2.00;;;;;;;20.70;60.64;102178.22;5028736;28;20030;-44
2023/07/18 00:52:38;;;;;;;6.00;1.63;;;;;;;20.75;60.54;102170.22;5029077;28;20037;-50
2023/07/18 00:55:04;;;;;;;10.90;1.98;;;;;;;20.72;60.87;102178.22;5029475;28;20029;-47
2023/07/18 00:57:31;;;;;;;6.57;1.48;;;;;;;20.73;60.28;102167.59;5030488;28;20551;-45
2023/07/18 00:59:57;;;;;;;9.02;1.58;;;;;;;20.76;60.19;102167.56;5030537;28;20369;-41
2023/07/18 01:02:22;;;;;;;4.68;1.35;;;;;;;20.77;60.25;102171.97;5034708;28;20052;-47
2023/07/18 01:04:48;;;;;;;5.72;1.70;;;;;;;20.69;60.51;102173.78;5035295;28;20091;-44
2023/07/18 01:07:15;;;;;;;5.38;1.85;;;;;;;20.59;60.86;102165.06;5034150;28;20065;-44
2023/07/18 01:09:40;;;;;;;4.70;1.45;;;;;;;20.73;60.64;102172.91;5032169;28;20092;-43
2023/07/18 01:12:06;;;;;;;7.47;1.80;;;;;;;20.62;61.07;102167.66;5030911;28;20111;-48
2023/07/18 01:14:32;;;;;;;6.22;1.48;;;;;;;20.63;61.11;102164.13;5034333;28;20099;-45
2023/07/18 01:16:57;;;;;;;10.18;1.67;;;;;;;20.66;61.17;102157.94;5035250;28;20029;-44
2023/07/18 01:19:23;;;;;;;5.60;1.50;;;;;;;20.68;60.57;102153.47;5034226;28;20040;-49
2023/07/18 01:21:48;;;;;;;7.30;1.73;;;;;;;20.58;61.27;102151.81;5032927;28;20036;-50
2023/07/18 01:24:13;;;;;;;5.18;1.45;;;;;;;20.60;61.15;102147.38;5032238;28;20106;-43
2023/07/18 01:26:39;;;;;;;6.28;1.42;;;;;;;20.58;61.06;102154.47;5032489;28;20125;-46
2023/07/18 01:29:04;;;;;;;6.07;1.60;;;;;;;20.56;61.06;102156.22;5031847;28;20065;-43
2023/07/18 01:31:30;;;;;;;8.85;1.67;;;;;;;20.54;61.12;102150.97;5031785;28;20061;-46
2023/07/18 01:33:56;;;;;;;7.80;1.65;;;;;;;20.49;61.69;102151.88;5032397;28;20044;-44
2023/07/18 01:36:22;;;;;;;6.40;1.60;;;;;;;20.53;61.25;102143.03;5032044;28;20037;-46
2023/07/18 01:38:47;;;;;;;5.00;1.25;;;;;;;20.46;61.78;102155.44;5032531;28;20563;-47
2023/07/18 01:41:13;;;;;;;6.13;1.70;;;;;;;20.50;61.46;102145.69;5031180;28;20168;-45
2023/07/18 01:43:38;;;;;;;4.80;1.48;;;;;;;20.49;61.59;102142.16;5032359;28;20134;-43
2023/07/18 01:46:03;;;;;;;5.10;1.58;;;;;;;20.47;61.81;102133.34;5031728;28;20038;-52
2023/07/18 01:48:29;;;;;;;7.75;1.50;;;;;;;20.48;61.38;102135.13;5031736;28;20192;-42
2023/07/18 01:50:54;;;;;;;4.60;1.20;;;;;;;20.49;61.52;102126.25;5031892;28;20415;-45
2023/07/18 01:53:20;;;;;;;6.32;1.50;;;;;;;20.45;61.40;102132.47;5032039;28;20372;-43
2023/07/18 01:55:45;;;;;;;4.68;1.40;;;;;;;20.43;61.56;102130.75;5032619;28;20410;-45
2023/07/18 01:58:10;;;;;;;4.88;1.45;;;;;;;20.42;61.33;102134.28;5032276;28;20519;-48
2023/07/18 02:00:36;;;;;;;5.03;1.45;;;;;;;20.39;61.55;102127.22;5032132;28;20033;-43
2023/07/18 02:03:02;;;;;;;7.53;1.60;;;;;;;20.34;61.56;102122.84;5032313;28;20037;-46
2023/07/18 02:05:29;;;;;;;6.80;1.70;;;;;;;20.35;61.50;102128.13;5031378;28;20029;-46
2023/07/18 02:07:57;;;;;;;7.22;1.70;;;;;;;20.17;62.13;102134.41;5031638;28;20037;-46
2023/07/18 02:10:23;;;;;;;8.70;2.03;;;;;;;20.30;61.62;102115.78;5031103;28;20530;-49
2023/07/18 02:12:53;;;;;;;8.57;1.52;;;;;;;20.28;61.65;102126.38;5031617;28;20033;-44
2023/07/18 02:15:19;;;;;;;7.32;1.60;;;;;;;20.29;61.64;102129.91;5031317;28;20065;-43
2023/07/18 02:17:44;;;;;;;8.68;1.70;;;;;;;20.32;61.43;102125.50;5031616;28;20030;-45
2023/07/18 02:20:11;;;;;;;6.82;1.60;;;;;;;20.35;61.19;102128.13;5030544;28;20029;-49
2023/07/18 02:22:38;;;;;;;7.30;1.50;;;;;;;20.37;61.03;102110.44;5031541;28;20033;-44
2023/07/18 02:25:05;;;;;;;5.70;1.80;;;;;;;20.29;61.08;102116.69;5030890;28;20516;-46
2023/07/18 02:27:35;;;;;;;8.75;1.70;;;;;;;20.19;61.18;102114.06;5031093;28;20033;-47
2023/07/18 02:30:01;;;;;;;8.95;1.77;;;;;;;20.27;60.74;102117.56;5030851;28;20109;-45
2023/07/18 02:32:30;;;;;;;8.75;1.67;;;;;;;20.25;60.80;102124.63;5030941;28;20044;-43
2023/07/18 02:34:58;;;;;;;6.97;1.90;;;;;;;20.12;61.13;102116.78;5031507;28;20040;-51
2023/07/18 02:37:25;;;;;;;6.78;1.90;;;;;;;20.17;60.81;102126.47;5031286;28;20385;-48
2023/07/18 02:39:53;;;;;;;4.38;1.50;;;;;;;20.15;60.77;102112.34;5030857;28;20465;-47
2023/07/18 02:42:19;;;;;;;5.45;1.70;;;;;;;20.08;61.11;102112.38;5030735;28;20090;-50
2023/07/18 02:44:45;;;;;;;4.85;1.52;;;;;;;20.04;61.00;102111.53;5029296;28;20469;-48
2023/07/18 02:47:11;;;;;;;9.05;1.90;;;;;;;19.97;61.34;102122.16;5031379;28;20025;-46
2023/07/18 02:49:36;;;;;;;10.52;1.70;;;;;;;19.94;61.57;102115.13;5031038;28;20048;-45
2023/07/18 02:52:02;;;;;;;6.22;1.80;;;;;;;19.89;61.60;102108.09;5031227;28;20029;-46
2023/07/18 02:54:28;;;;;;;5.82;1.88;;;;;;;19.78;62.02;102114.31;5030667;28;20033;-47
2023/07/18 02:56:54;;;;;;;5.43;1.77;;;;;;;19.81;61.90;102106.38;5030829;28;20096;-43
2023/07/18 02:59:21;;;;;;;5.05;1.60;;;;;;;19.82;62.09;102121.34;5029994;28;20033;-45
2023/07/18 03:01:57;;;;;;;7.13;1.90;;;;;;;19.77;62.05;102117.84;5030861;28;20030;-44
2023/07/18 03:04:22;;;;;;;6.43;1.77;;;;;;;19.78;61.88;102119.59;5029297;28;20041;-43
2023/07/18 03:06:48;;;;;;;3.42;1.42;;;;;;;19.74;62.06;102114.34;5031002;28;20080;-48
2023/07/18 03:09:16;;;;;;;6.20;1.70;;;;;;;19.66;62.24;102119.66;5030092;28;20656;-44
2023/07/18 03:11:41;;;;;;;4.22;1.60;;;;;;;19.57;62.53;102124.13;5030661;28;20037;-47
2023/07/18 03:14:08;;;;;;;4.35;1.80;;;;;;;19.66;62.20;102118.78;5030154;28;20083;-45
2023/07/18 03:16:33;;;;;;;5.88;1.70;;;;;;;19.64;62.21;102116.13;5030460;28;20029;-44
2023/07/18 03:18:59;;;;;;;6.57;1.80;;;;;;;19.54;62.24;102108.25;5030144;28;20032;-47
2023/07/18 03:21:24;;;;;;;7.70;2.00;;;;;;;19.57;62.28;102114.44;5029342;28;20034;-47
2023/07/18 03:23:50;;;;;;;6.10;2.05;;;;;;;19.46;62.63;102115.38;5029941;28;20037;-44
2023/07/18 03:26:15;;;;;;;6.40;1.80;;;;;;;19.56;62.18;102104.72;5030159;28;20086;-47
2023/07/18 03:28:41;;;;;;;4.72;1.67;;;;;;;19.47;62.31;102114.44;5030086;28;20133;-46
2023/07/18 03:31:06;;;;;;;3.63;1.75;;;;;;;19.52;62.33;102110.03;5030021;28;20102;-46
2023/07/18 03:33:31;;;;;;;3.80;1.50;;;;;;;19.46;62.25;102116.22;5030798;28;20030;-44
2023/07/18 03:35:57;;;;;;;5.05;1.65;;;;;;;19.53;62.10;102114.44;5030375;28;20036;-47
2023/07/18 03:38:22;;;;;;;4.47;1.70;;;;;;;19.49;62.28;102117.97;5029662;28;20041;-42
2023/07/18 03:40:48;;;;;;;4.80;1.67;;;;;;;19.33;63.08;102117.13;5028707;28;20040;-47
2023/07/18 03:43:13;;;;;;;5.10;1.70;;;;;;;19.49;62.08;102124.16;5029802;28;20511;-47
2023/07/18 03:45:38;;;;;;;7.53;1.83;;;;;;;19.45;62.10;102119.72;5030618;28;20029;-48
2023/07/18 03:48:04;;;;;;;6.07;1.88;;;;;;;19.32;62.91;102120.66;5028869;28;20041;-48
2023/07/18 03:50:29;;;;;;;4.85;1.55;;;;;;;19.43;62.40;102121.50;5029930;28;20516;-46
2023/07/18 03:52:55;;;;;;;5.07;1.67;;;;;;;19.38;62.35;102123.28;5029708;28;20068;-46
2023/07/18 03:55:20;;;;;;;6.95;2.05;;;;;;;19.38;62.18;102124.16;5029696;28;20102;-44
2023/07/18 03:57:45;;;;;;;5.80;1.80;;;;;;;19.35;62.27;102116.22;5029857;28;20487;-45
2023/07/18 04:00:16;;;;;;;4.07;1.70;;;;;;;19.33;62.29;102117.97;5028767;28;20044;-49
2023/07/18 04:02:42;;;;;;;5.28;1.75;;;;;;;19.32;62.40;102120.66;5028551;28;20642;-43
2023/07/18 04:05:08;;;;;;;6.63;1.75;;;;;;;19.26;63.10;102125.97;5030260;28;20093;-45
2023/07/18 04:07:33;;;;;;;4.97;1.67;;;;;;;19.30;62.56;102120.66;5031575;28;20689;-43
2023/07/18 04:09:58;;;;;;;8.10;1.70;;;;;;;19.09;63.30;102115.41;5030706;28;20032;-48
2023/07/18 04:12:24;;;;;;;5.10;1.70;;;;;;;19.23;62.80;102112.72;5030531;28;20041;-43
2023/07/18 04:14:50;;;;;;;6.53;1.88;;;;;;;19.20;62.97;102113.63;5031001;28;20040;-43
2023/07/18 04:17:16;;;;;;;5.13;1.83;;;;;;;19.10;63.33;102113.63;5030044;28;20036;-43
2023/07/18 04:19:41;;;;;;;5.35;1.88;;;;;;;19.23;62.90;102118.00;5030843;28;20037;-45
2023/07/18 04:22:07;;;;;;;6.03;1.90;;;;;;;19.29;62.69;102113.59;5030863;28;20041;-49
2023/07/18 04:24:32;;;;;;;5.75;1.98;;;;;;;19.36;62.35;102115.34;5030991;28;20033;-44
2023/07/18 04:26:57;;;;;;;4.60;1.85;;;;;;;19.25;62.57;102110.97;5030837;28;20121;-50
2023/07/18 04:29:24;;;;;;;7.55;2.10;;;;;;;19.25;62.73;102113.63;5030041;28;20052;-44
2023/07/18 04:31:49;;;;;;;5.32;2.00;;;;;;;19.44;62.12;102110.03;5030644;28;20519;-48
2023/07/18 04:34:16;;;;;;;6.18;2.05;;;;;;;19.50;62.01;102107.41;5030456;28;20056;-46
2023/07/18 04:36:43;;;;;;;6.47;2.17;;;;;;;19.45;62.04;102098.56;5033797;28;20212;-44
2023/07/18 04:39:09;;;;;;;7.72;2.30;;;;;;;19.54;61.96;102092.38;5034856;28;20087;-44
2023/07/18 04:41:35;;;;;;;6.57;2.10;;;;;;;19.60;61.84;102089.72;5034114;28;20037;-49
2023/07/18 04:44:00;;;;;;;6.38;2.30;;;;;;;19.63;61.97;102095.00;5035124;28;20030;-44
2023/07/18 04:46:26;;;;;;;6.28;2.22;;;;;;;19.80;61.55;102090.50;5034525;28;20040;-48
2023/07/18 04:48:51;;;;;;;7.93;2.30;;;;;;;19.83;61.35;102096.66;5034237;28;20159;-44
2023/07/18 04:51:17;;;;;;;4.90;2.22;;;;;;;19.78;61.29;102094.91;5033496;28;20500;-44
2023/07/18 04:53:42;;;;;;;6.53;2.40;;;;;;;19.94;61.13;102091.31;5034252;28;20037;-48
2023/07/18 04:56:07;;;;;;;8.88;2.30;;;;;;;20.19;60.54;102090.25;5032823;28;20030;-44
2023/07/18 04:58:33;;;;;;;8.05;2.60;;;;;;;20.34;59.81;102086.66;5033984;28;20045;-47
2023/07/18 05:00:59;;;;;;;10.48;2.40;;;;;;;20.49;59.13;102083.00;5032101;28;20029;-44
2023/07/18 05:03:26;;;;;;;7.75;2.20;;;;;;;20.86;58.94;102078.25;5034310;28;20039;-46
2023/07/18 05:05:52;;;;;;;8.75;2.90;;;;;;;21.00;57.46;102086.94;5035503;28;20052;-44
2023/07/18 05:08:17;;;;;;;7.28;2.80;;;;;;;21.20;57.33;102073.50;5034860;28;20049;-47
2023/07/18 05:10:43;;;;;;;5.80;2.50;;;;;;;21.11;56.88;102084.16;5035425;28;20037;-43
2023/07/18 05:13:08;;;;;;;13.02;2.83;;;;;;;21.06;56.85;102074.50;5036331;28;20053;-43
2023/07/18 05:15:34;;;;;;;10.50;2.95;;;;;;;21.11;57.33;102076.19;5035826;28;20499;-47
2023/07/18 05:17:59;;;;;;;12.30;3.20;;;;;;;21.14;57.02;102069.09;5034179;28;20045;-48
2023/07/18 05:20:25;;;;;;;8.43;2.80;;;;;;;21.05;57.67;102067.41;5034004;28;20026;-47
2023/07/18 05:22:50;;;;;;;8.93;2.90;;;;;;;21.19;57.60;102077.03;5034567;28;20037;-46
2023/07/18 05:25:17;;;;;;;9.98;2.95;;;;;;;21.83;56.09;102072.66;5032632;28;20033;-50
2023/07/18 05:27:42;;;;;;;7.05;3.13;;;;;;;22.69;52.10;102074.00;5032816;28;20123;-47
2023/07/18 05:30:18;;;;;;;9.38;2.67;;;;;;;23.96;48.63;102086.56;5033302;28;20112;-42
2023/07/18 05:32:45;;;;;;;10.73;3.10;;;;;;;23.97;50.01;102077.66;5034137;28;20042;-49
2023/07/18 05:35:13;;;;;;;10.18;3.00;;;;;;;24.95;46.89;102083.19;5033250;28;20113;-49
2023/07/18 05:37:40;;;;;;;7.68;3.00;;;;;;;25.46;44.75;102082.66;5033867;28;20038;-44
2023/07/18 05:40:09;;;;;;;9.77;2.92;;;;;;;25.96;44.76;102085.63;5032051;28;20407;-47
2023/07/18 05:42:35;;;;;;;7.90;2.97;;;;;;;25.70;44.54;102084.63;5032504;28;20038;-48
2023/07/18 05:45:00;;;;;;;12.75;3.60;;;;;;;24.93;45.99;102089.50;5033041;28;20036;-49
2023/07/18 05:47:26;;;;;;;9.98;3.33;;;;;;;25.38;45.02;102092.66;5032315;28;20054;-45
2023/07/18 05:49:51;;;;;;;11.60;3.50;;;;;;;25.40;44.96;102091.72;5032021;28;20040;-50
2023/07/18 05:52:16;;;;;;;9.27;3.42;;;;;;;25.83;45.11;102096.69;5031556;28;20380;-48
2023/07/18 05:54:42;;;;;;;12.25;3.70;;;;;;;25.08;46.42;102094.41;5032188;28;20443;-45
2023/07/18 05:57:07;;;;;;;12.82;4.20;;;;;;;25.07;46.87;102091.81;5031626;28;20048;-45
2023/07/18 05:59:34;;;;;;;12.00;3.78;;;;;;;25.88;45.17;102087.66;5031605;28;20033;-48
2023/07/18 06:01:59;;;;;;;11.95;4.15;;;;;;;26.25;43.56;102088.28;5032138;28;20037;-46
2023/07/18 06:04:24;;;;;;;19.67;4.45;;;;;;;26.49;44.32;102086.59;5031555;28;20079;-47
2023/07/18 06:06:50;;;;;;;12.52;4.30;;;;;;;26.40;44.15;102085.13;5031958;28;20119;-49
2023/07/18 06:09:15;;;;;;;14.82;4.75;;;;;;;26.47;43.60;102089.31;5031095;28;20041;-45
2023/07/18 06:11:41;;;;;;;17.02;4.80;;;;;;;26.90;43.23;102085.19;5031328;28;20029;-43
2023/07/18 06:14:06;;;;;;;13.98;5.55;;;;;;;26.65;42.96;102094.03;5031247;28;20040;-54
2023/07/18 06:16:32;;;;;;;13.93;5.03;;;;;;;27.27;42.21;102096.31;5031698;28;20037;-45
2023/07/18 06:18:57;;;;;;;14.25;5.47;;;;;;;27.46;41.36;102096.50;5031758;28;20384;-46
2023/07/18 06:21:26;;;;;;;14.48;5.85;;;;;;;27.28;41.32;102106.09;5029225;28;20106;-48
2023/07/18 06:23:55;;;;;;;17.88;6.38;;;;;;;27.74;41.86;102104.41;5031556;28;20109;-47
2023/07/18 06:26:21;;;;;;;16.42;6.97;;;;;;;26.21;45.28;102108.00;5030816;28;20033;-46
2023/07/18 06:28:46;;;;;;;21.20;6.78;;;;;;;26.00;45.23;102108.66;5030985;28;20044;-50
2023/07/18 06:31:12;;;;;;;21.70;8.52;;;;;;;25.91;46.71;102114.28;5030201;28;20034;-47
2023/07/18 06:33:38;;;;;;;18.50;8.32;;;;;;;25.93;46.33;102112.44;5031258;28;20077;-49
2023/07/18 06:36:03;;;;;;;23.63;10.05;;;;;;;25.23;47.74;102123.38;5031183;28;20037;-46
2023/07/18 06:38:29;;;;;;;22.23;10.45;;;;;;;25.27;48.27;102124.13;5030879;28;20377;-48
2023/07/18 06:40:55;;;;;;;22.65;11.05;;;;;;;24.96;49.22;102122.31;5031753;28;20029;-46
2023/07/18 06:43:21;;;;;;;21.77;11.85;;;;;;;24.59;49.91;102118.78;5031468;28;20036;-47
2023/07/18 06:45:47;;;;;;;21.95;11.57;;;;;;;25.04;48.75;102116.78;5030933;28;20033;-46
2023/07/18 06:48:13;;;;;;;22.25;11.63;;;;;;;25.32;49.57;102117.75;5031266;28;20049;-46
2023/07/18 06:50:46;;;;;;;22.58;11.60;;;;;;;24.70;50.55;102108.75;5031477;28;20071;-47
2023/07/18 06:53:13;;;;;;;24.08;12.63;;;;;;;25.58;48.24;102106.38;5030874;28;20120;-43
2023/07/18 06:55:38;;;;;;;21.30;11.48;;;;;;;26.32;46.25;102108.53;5030916;28;20044;-50
2023/07/18 06:58:05;;;;;;;21.00;11.55;;;;;;;26.51;46.06;102104.34;5029889;28;20026;-46
2023/07/18 07:00:31;;;;;;;25.85;12.73;;;;;;;26.17;46.37;102114.34;5030241;28;20033;-45
2023/07/18 07:02:56;;;;;;;21.85;12.23;;;;;;;26.21;46.58;102108.00;5031567;28;20034;-45
2023/07/18 07:05:21;;;;;;;23.08;12.52;;;;;;;26.29;45.95;102105.94;5030431;28;20117;-47
2023/07/18 07:07:49;;;;;;;23.95;12.70;;;;;;;26.13;46.78;102104.69;5030725;28;20029;-52
2023/07/18 07:10:14;;;;;;;26.02;11.88;;;;;;;26.66;45.06;102103.81;5029768;28;20683;-44
2023/07/18 07:12:40;;;;;;;25.92;12.43;;;;;;;26.70;45.21;102096.56;5030700;28;20067;-45
2023/07/18 07:15:06;;;;;;;22.08;12.23;;;;;;;26.72;45.19;102093.81;5029116;28;20026;-48
2023/07/18 07:17:31;;;;;;;27.08;12.55;;;;;;;25.54;48.94;102102.00;5029348;28;20459;-48
2023/07/18 07:19:57;;;;;;;28.95;13.88;;;;;;;24.38;50.81;102093.56;5029722;28;20437;-45
2023/07/18 07:22:22;;;;;;;27.85;14.52;;;;;;;24.14;52.22;102108.31;5029808;28;20454;-47
2023/07/18 07:24:47;;;;;;;24.10;14.18;;;;;;;25.25;49.66;102101.97;5028276;28;20036;-49
2023/07/18 07:27:13;;;;;;;29.50;13.88;;;;;;;25.27;50.73;102100.13;5029877;28;20116;-47
2023/07/18 07:29:39;;;;;;;27.48;14.65;;;;;;;25.33;49.37;102102.59;5029707;28;20048;-45
2023/07/18 07:32:06;;;;;;;26.02;13.77;;;;;;;25.78;48.54;102109.31;5029555;28;20034;-43
2023/07/18 07:34:32;;;;;;;24.77;14.48;;;;;;;25.31;49.20;102110.66;5029826;28;20591;-47
2023/07/18 07:36:57;;;;;;;26.25;13.98;;;;;;;24.54;51.87;102104.72;5030243;28;20021;-46
2023/07/18 07:39:23;;;;;;;23.92;14.13;;;;;;;23.38;55.14;102109.06;5028858;28;20577;-47
2023/07/18 07:41:48;;;;;;;22.15;13.43;;;;;;;23.99;53.79;102106.00;5029357;28;20264;-52
2023/07/18 07:44:13;;;;;;;24.23;12.98;;;;;;;23.80;53.75;102110.84;5049220;28;20489;-47
2023/07/18 07:46:39;;;;;;;22.92;13.43;;;;;;;23.89;54.11;102106.25;5049658;28;20518;-47
2023/07/18 07:49:04;;;;;;;23.42;12.73;;;;;;;23.62;54.69;102105.03;5043324;28;20052;-48
2023/07/18 07:51:29;;;;;;;22.92;12.77;;;;;;;23.20;56.39;102104.09;5027917;28;20025;-47
2023/07/18 07:53:56;;;;;;;22.90;12.02;;;;;;;23.91;53.50;102099.09;5029078;28;20037;-49
2023/07/18 07:56:21;;;;;;;16.85;11.45;;;;;;;24.43;52.81;102099.66;5028591;28;20041;-47
2023/07/18 07:58:47;;;;;;;18.38;10.25;;;;;;;25.67;48.57;102097.22;5027361;28;20504;-51
2023/07/18 08:01:12;;;;;;;19.65;10.10;;;;;;;26.65;46.23;102082.47;5027842;28;20475;-47
2023/07/18 08:03:38;;;;;;;19.02;10.45;;;;;;;26.38;45.91;102092.28;5036621;28;20044;-46
2023/07/18 08:06:03;;;;;;;18.15;9.40;;;;;;;27.89;42.20;102086.84;5029884;28;20116;-53
2023/07/18 08:08:28;;;;;;;13.82;9.23;;;;;;;27.55;43.71;102088.16;5048804;28;20122;-48
2023/07/18 08:10:54;;;;;;;17.20;10.73;;;;;;;27.71;42.07;102086.63;5047969;28;20038;-49
2023/07/18 08:13:19;;;;;;;19.85;11.05;;;;;;;28.24;42.03;102092.56;5044863;28;20128;-47
2023/07/18 08:15:44;;;;;;;22.80;11.23;;;;;;;27.94;42.96;102095.56;5028406;28;20033;-47
2023/07/18 08:18:10;;;;;;;20.85;11.27;;;;;;;27.80;41.92;102088.09;5028612;28;20029;-47
2023/07/18 08:20:36;;;;;;;19.83;10.85;;;;;;;27.02;44.60;102098.13;5028601;28;20433;-44
2023/07/18 08:23:02;;;;;;;18.70;10.65;;;;;;;26.83;45.28;102089.00;5029458;28;20072;-50
2023/07/18 08:25:27;;;;;;;15.07;10.43;;;;;;;28.09;42.43;102077.09;5028584;28;20057;-47
2023/07/18 08:27:53;;;;;;;18.67;10.85;;;;;;;27.52;44.08;102082.03;5027212;28;20491;-48
2023/07/18 08:30:19;;;;;;;20.83;11.30;;;;;;;26.99;44.68;102091.09;5028143;28;20091;-49
2023/07/18 08:32:45;;;;;;;17.00;10.63;;;;;;;27.62;43.68;102095.06;5028686;28;20025;-46
2023/07/18 08:35:10;;;;;;;18.85;9.40;;;;;;;28.11;42.22;102093.13;5038682;28;20582;-52
2023/07/18 08:37:36;;;;;;;15.68;10.48;;;;;;;27.07;43.74;102089.97;5048870;28;20037;-47
2023/07/18 08:40:03;;;;;;;20.02;11.77;;;;;;;27.14;44.33;102084.31;5048803;28;20530;-45
2023/07/18 08:42:31;;;;;;;23.83;13.18;;;;;;;26.36;45.65;102078.09;5039933;28;20037;-41
2023/07/18 08:44:58;;;;;;;20.10;11.20;;;;;;;26.40;45.88;102078.88;5029183;28;20029;-46
2023/07/18 08:47:26;;;;;;;17.73;9.15;;;;;;;24.84;50.02;102082.59;5029143;28;20093;-46
2023/07/18 08:49:52;;;;;;;17.27;9.45;;;;;;;24.85;50.07;102087.00;5028682;28;20039;-49
2023/07/18 08:52:18;;;;;;;18.60;9.50;;;;;;;25.68;48.09;102077.56;5027971;28;20037;-48
2023/07/18 08:54:43;;;;;;;16.15;9.60;;;;;;;25.99;46.57;102075.69;5029566;28;20048;-51
2023/07/18 08:57:10;;;;;;;18.92;9.43;;;;;;;25.57;49.17;102085.03;5029026;28;20432;-46
2023/07/18 08:59:38;;;;;;;14.27;7.70;;;;;;;26.27;47.08;102075.75;5026711;28;20056;-50
2023/07/18 09:02:04;;;;;;;19.25;9.50;;;;;;;26.33;46.29;102069.31;5029095;28;20022;-51
2023/07/18 09:04:31;;;;;;;16.17;9.10;;;;;;;25.80;47.87;102071.84;5029384;28;20494;-46
2023/07/18 09:06:58;;;;;;;21.27;8.93;;;;;;;25.54;49.30;102077.09;5029016;28;20036;-46
2023/07/18 09:09:24;;;;;;;15.25;7.90;;;;;;;26.29;47.15;102067.69;5029900;28;20044;-46
2023/07/18 09:11:57;;;;;;;15.20;8.15;;;;;;;26.13;47.71;102065.47;5030857;28;20036;-45
2023/07/18 09:14:27;;;;;;;14.82;8.10;;;;;;;25.18;49.03;102063.91;5028630;28;20029;-44
2023/07/18 09:16:56;;;;;;;18.13;8.70;;;;;;;25.34;49.64;102065.19;5030089;28;20049;-49
2023/07/18 09:19:34;;;;;;;15.82;6.43;;;;;;;26.68;45.78;102055.59;5030335;28;20037;-45
2023/07/18 09:22:00;;;;;;;12.93;6.63;;;;;;;27.09;45.59;102062.19;5032842;28;20724;-47
2023/07/18 09:24:32;;;;;;;12.20;6.40;;;;;;;27.55;43.63;102057.81;5031983;28;20029;-45
2023/07/18 09:26:57;;;;;;;12.07;6.72;;;;;;;26.37;45.89;102050.44;5032169;28;20029;-47
2023/07/18 09:29:25;;;;;;;16.65;6.78;;;;;;;25.99;46.71;102050.78;5031469;28;20450;-51
2023/07/18 09:31:50;;;;;;;13.75;6.88;;;;;;;25.73;47.55;102060.50;5031899;28;20025;-46
2023/07/18 09:34:18;;;;;;;14.68;6.93;;;;;;;25.30;50.00;102052.88;5031522;28;20052;-49
2023/07/18 09:36:54;;;;;;;9.82;5.80;;;;;;;26.34;45.85;102041.66;5032241;28;20034;-46
2023/07/18 09:39:21;;;;;;;15.43;5.97;;;;;;;27.01;43.86;102049.09;5030036;28;20045;-47
2023/07/18 09:41:47;;;;;;;12.48;5.53;;;;;;;27.11;43.09;102048.75;5031815;28;20099;-48
2023/07/18 09:44:14;;;;;;;8.00;4.80;;;;;;;27.10;44.07;102047.88;5031393;28;20168;-48
2023/07/18 09:46:40;;;;;;;9.43;4.93;;;;;;;26.74;44.45;102043.81;5032245;28;20056;-51
2023/07/18 09:49:05;;;;;;;10.90;6.10;;;;;;;27.09;43.23;102045.25;5031388;28;20041;-44
2023/07/18 09:51:33;;;;;;;12.13;5.05;;;;;;;27.15;43.51;102042.34;5036095;28;20114;-45
2023/07/18 09:53:59;;;;;;;12.75;4.60;;;;;;;26.22;45.34;102033.09;5051789;28;20659;-46
2023/07/18 09:56:26;;;;;;;11.65;4.90;;;;;;;25.82;46.21;102048.66;5034900;28;20038;-51
2023/07/18 09:58:52;;;;;;;8.77;4.18;;;;;;;26.82;43.48;102037.28;5031457;28;20131;-48
2023/07/18 10:01:20;;;;;;;10.63;5.30;;;;;;;25.55;47.50;102046.81;5030800;28;20048;-50
2023/07/18 10:03:49;;;;;;;12.73;5.95;;;;;;;26.27;45.75;102035.63;5031582;28;20503;-51
2023/07/18 10:06:15;;;;;;;11.20;4.63;;;;;;;25.65;46.66;102034.94;5031273;28;20179;-52
2023/07/18 10:08:43;;;;;;;8.98;4.20;;;;;;;26.11;45.42;102026.31;5033386;28;20060;-47
2023/07/18 10:11:09;;;;;;;11.10;4.10;;;;;;;26.48;44.83;102020.66;5050700;28;20040;-45
2023/07/18 10:14:02;;;;;;;7.95;4.20;;;;;;;26.90;42.52;102021.84;5038483;28;20033;-45
2023/07/18 10:16:28;;;;;;;12.35;4.00;;;;;;;26.89;43.11;102019.22;5039382;28;20033;-47
2023/07/18 10:18:53;;;;;;;8.02;3.70;;;;;;;27.50;43.07;102008.88;5051560;28;20036;-50
2023/07/18 10:21:32;;;;;;;9.65;3.97;;;;;;;27.63;42.24;102003.00;5030223;28;20598;-45
2023/07/18 10:24:18;;;;;;;12.50;4.28;;;;;;;27.45;42.12;101996.53;5043861;28;20055;-52
2023/07/18 10:26:43;;;;;;;10.77;3.83;;;;;;;27.95;40.58;101993.66;5050893;28;20044;-50
2023/07/18 10:29:10;;;;;;;7.25;3.33;;;;;;;27.61;40.82;101991.50;5051083;28;20041;-45
2023/07/18 10:31:39;;;;;;;12.75;4.10;;;;;;;27.07;41.42;101991.78;5032790;28;20709;-47
2023/07/18 10:34:06;;;;;;;11.55;3.78;;;;;;;27.32;41.17;101989.94;5030654;28;20092;-48
2023/07/18 10:36:31;;;;;;;10.60;3.50;;;;;;;27.76;41.04;101987.31;5031134;28;20029;-46
2023/07/18 10:38:57;;;;;;;6.82;3.17;;;;;;;26.85;41.25;101980.09;5031528;28;20025;-44
2023/07/18 10:41:22;;;;;;;6.00;3.03;;;;;;;27.12;40.04;101981.78;5041871;28;20056;-50
2023/07/18 10:43:48;;;;;;;8.15;3.60;;;;;;;26.79;41.75;101989.22;5047606;28;20404;-45
2023/07/18 10:46:13;;;;;;;11.10;3.13;;;;;;;27.40;41.01;101981.56;5030593;28;20060;-44
2023/07/18 10:48:38;;;;;;;8.35;2.90;;;;;;;27.78;39.30;101986.31;5030432;28;20044;-51
2023/07/18 10:51:08;;;;;;;10.25;3.30;;;;;;;27.93;38.55;101975.91;5030150;28;20571;-45
2023/07/18 10:53:33;;;;;;;8.93;3.38;;;;;;;27.79;39.31;101979.16;5029729;28;20039;-45
2023/07/18 10:55:59;;;;;;;7.53;3.08;;;;;;;26.95;40.79;101978.88;5031235;28;20026;-51
2023/07/18 10:58:24;;;;;;;9.10;3.15;;;;;;;27.32;39.94;101987.25;5030236;28;20547;-48
2023/07/18 11:00:50;;;;;;;7.40;3.05;;;;;;;27.65;39.10;101970.78;5030369;28;20125;-48
2023/07/18 11:03:23;;;;;;;9.70;3.45;;;;;;;26.69;41.81;101968.19;5028600;28;20033;-51
2023/07/18 11:05:52;;;;;;;8.82;3.25;;;;;;;26.89;41.07;101966.59;5040024;28;20037;-44
2023/07/18 11:08:28;;;;;;;10.15;3.13;;;;;;;26.58;41.86;101964.13;5046814;28;20041;-50
2023/07/18 11:10:56;;;;;;;9.45;3.40;;;;;;;27.25;40.83;101974.16;5029979;28;20081;-48
2023/07/18 11:13:36;;;;;;;8.07;2.65;;;;;;;26.37;41.04;101969.34;5045459;28;20040;-46
2023/07/18 11:16:15;;;;;;;7.20;2.35;;;;;;;27.08;39.73;101961.38;5050139;28;20456;-44